sensor_id;sensor_type;location;lat;lon;timestamp;P1;durP1;ratioP1;P2;durP2;ratioP2
39996;SDS011;25688;52.338;21.072;2022-08-19T00:01:15;20.25;;;17.15;;
39996;SDS011;25688;52.338;21.072;2022-08-19T00:40:49;29.88;;;18.63;;
39996;SDS011;25688;52.338;21.072;2022-08-19T01:01:03;28.30;;;24.17;;
39996;SDS011;25688;52.338;21.072;2022-08-19T01:11:45;263.10;;;30.17;;
39996;SDS011;25688;52.338;21.072;2022-08-19T01:20:59;24.17;;;17.48;;
39996;SDS011;25688;52.338;21.072;2022-08-19T01:24:16;22.40;;;18.55;;
39996;SDS011;25688;52.338;21.072;2022-08-19T01:27:04;21.03;;;16.97;;
39996;SDS011;25688;52.338;21.072;2022-08-19T01:41:11;19.25;;;16.45;;
39996;SDS011;25688;52.338;21.072;2022-08-19T01:44:45;13.88;;;11.98;;
39996;SDS011;25688;52.338;21.072;2022-08-19T01:47:38;11.25;;;8.80;;
39996;SDS011;25688;52.338;21.072;2022-08-19T01:54:07;203.57;;;18.65;;
39996;SDS011;25688;52.338;21.072;2022-08-19T01:56:37;178.23;;;14.50;;
39996;SDS011;25688;52.338;21.072;2022-08-19T01:59:44;9.43;;;8.40;;
39996;SDS011;25688;52.338;21.072;2022-08-19T02:02:42;9.10;;;7.97;;
39996;SDS011;25688;52.338;21.072;2022-08-19T03:14:02;24.10;;;18.50;;
39996;SDS011;25688;52.338;21.072;2022-08-19T03:31:16;38.20;;;27.92;;
39996;SDS011;25688;52.338;21.072;2022-08-19T04:22:19;34.03;;;22.58;;
39996;SDS011;25688;52.338;21.072;2022-08-19T04:32:18;29.33;;;23.90;;
39996;SDS011;25688;52.338;21.072;2022-08-19T04:35:06;31.80;;;22.83;;
39996;SDS011;25688;52.338;21.072;2022-08-19T04:59:40;28.25;;;19.00;;
39996;SDS011;25688;52.338;21.072;2022-08-19T05:06:34;23.52;;;16.92;;
39996;SDS011;25688;52.338;21.072;2022-08-19T05:09:45;22.83;;;17.40;;
39996;SDS011;25688;52.338;21.072;2022-08-19T05:26:01;19.80;;;13.70;;
39996;SDS011;25688;52.338;21.072;2022-08-19T05:35:45;22.77;;;13.55;;
39996;SDS011;25688;52.338;21.072;2022-08-19T05:46:45;15.65;;;12.50;;
39996;SDS011;25688;52.338;21.072;2022-08-19T06:26:59;20.05;;;11.70;;
39996;SDS011;25688;52.338;21.072;2022-08-19T06:30:19;15.88;;;11.45;;
39996;SDS011;25688;52.338;21.072;2022-08-19T08:34:38;13.68;;;10.10;;
39996;SDS011;25688;52.338;21.072;2022-08-19T08:37:28;14.52;;;9.70;;
39996;SDS011;25688;52.338;21.072;2022-08-19T09:03:59;14.15;;;10.27;;
39996;SDS011;25688;52.338;21.072;2022-08-19T09:22:09;19.33;;;10.20;;
39996;SDS011;25688;52.338;21.072;2022-08-19T09:35:36;15.23;;;9.82;;
39996;SDS011;25688;52.338;21.072;2022-08-19T09:38:32;16.33;;;9.38;;
39996;SDS011;25688;52.338;21.072;2022-08-19T09:41:42;13.38;;;9.20;;
39996;SDS011;25688;52.338;21.072;2022-08-19T09:59:02;17.90;;;9.48;;
39996;SDS011;25688;52.338;21.072;2022-08-19T10:21:02;13.70;;;9.55;;
39996;SDS011;25688;52.338;21.072;2022-08-19T10:23:47;11.90;;;9.45;;
39996;SDS011;25688;52.338;21.072;2022-08-19T12:56:05;11.77;;;5.70;;
39996;SDS011;25688;52.338;21.072;2022-08-19T12:58:32;10.15;;;5.88;;
39996;SDS011;25688;52.338;21.072;2022-08-19T13:01:00;12.13;;;5.70;;
39996;SDS011;25688;52.338;21.072;2022-08-19T13:03:32;11.35;;;6.30;;
39996;SDS011;25688;52.338;21.072;2022-08-19T13:05:57;20.10;;;5.90;;
39996;SDS011;25688;52.338;21.072;2022-08-19T13:08:23;12.35;;;6.05;;
39996;SDS011;25688;52.338;21.072;2022-08-19T13:10:49;10.23;;;5.70;;
39996;SDS011;25688;52.338;21.072;2022-08-19T13:13:15;12.93;;;5.88;;
39996;SDS011;25688;52.338;21.072;2022-08-19T13:15:41;11.02;;;5.93;;
39996;SDS011;25688;52.338;21.072;2022-08-19T13:18:09;10.75;;;5.38;;
39996;SDS011;25688;52.338;21.072;2022-08-19T13:20:36;9.75;;;5.22;;
39996;SDS011;25688;52.338;21.072;2022-08-19T13:23:05;12.68;;;5.45;;
39996;SDS011;25688;52.338;21.072;2022-08-19T13:25:32;10.13;;;5.45;;
39996;SDS011;25688;52.338;21.072;2022-08-19T13:27:58;10.80;;;5.53;;
39996;SDS011;25688;52.338;21.072;2022-08-19T13:30:24;12.20;;;5.30;;
39996;SDS011;25688;52.338;21.072;2022-08-19T13:33:08;12.77;;;5.93;;
39996;SDS011;25688;52.338;21.072;2022-08-19T13:35:42;13.55;;;6.07;;
39996;SDS011;25688;52.338;21.072;2022-08-19T13:38:11;11.73;;;5.38;;
39996;SDS011;25688;52.338;21.072;2022-08-19T13:40:39;11.07;;;5.72;;
39996;SDS011;25688;52.338;21.072;2022-08-19T13:43:05;10.70;;;5.60;;
39996;SDS011;25688;52.338;21.072;2022-08-19T13:45:33;9.02;;;5.25;;
39996;SDS011;25688;52.338;21.072;2022-08-19T13:47:59;17.08;;;6.43;;
39996;SDS011;25688;52.338;21.072;2022-08-19T13:50:27;11.48;;;5.32;;
39996;SDS011;25688;52.338;21.072;2022-08-19T13:52:56;8.10;;;5.53;;
39996;SDS011;25688;52.338;21.072;2022-08-19T13:55:23;12.30;;;5.15;;
39996;SDS011;25688;52.338;21.072;2022-08-19T13:57:50;7.10;;;4.85;;
39996;SDS011;25688;52.338;21.072;2022-08-19T14:00:21;10.82;;;5.22;;
39996;SDS011;25688;52.338;21.072;2022-08-19T14:02:51;11.45;;;5.32;;
39996;SDS011;25688;52.338;21.072;2022-08-19T14:05:18;8.65;;;5.20;;
39996;SDS011;25688;52.338;21.072;2022-08-19T14:07:44;11.30;;;5.60;;
39996;SDS011;25688;52.338;21.072;2022-08-19T14:10:11;11.65;;;5.43;;
39996;SDS011;25688;52.338;21.072;2022-08-19T14:12:38;11.55;;;5.60;;
39996;SDS011;25688;52.338;21.072;2022-08-19T14:15:05;12.90;;;5.80;;
39996;SDS011;25688;52.338;21.072;2022-08-19T14:17:33;10.57;;;5.32;;
39996;SDS011;25688;52.338;21.072;2022-08-19T14:20:09;8.55;;;5.18;;
39996;SDS011;25688;52.338;21.072;2022-08-19T14:22:36;13.50;;;6.57;;
39996;SDS011;25688;52.338;21.072;2022-08-19T14:25:04;10.63;;;5.78;;
39996;SDS011;25688;52.338;21.072;2022-08-19T14:27:32;14.57;;;6.25;;
39996;SDS011;25688;52.338;21.072;2022-08-19T14:29:58;14.00;;;5.72;;
39996;SDS011;25688;52.338;21.072;2022-08-19T14:32:24;9.82;;;5.38;;
39996;SDS011;25688;52.338;21.072;2022-08-19T14:34:52;10.57;;;5.88;;
39996;SDS011;25688;52.338;21.072;2022-08-19T14:37:19;9.80;;;5.53;;
39996;SDS011;25688;52.338;21.072;2022-08-19T14:39:46;7.82;;;5.45;;
39996;SDS011;25688;52.338;21.072;2022-08-19T14:42:12;10.02;;;5.93;;
39996;SDS011;25688;52.338;21.072;2022-08-19T14:44:45;9.98;;;5.65;;
39996;SDS011;25688;52.338;21.072;2022-08-19T14:47:11;11.43;;;5.10;;
39996;SDS011;25688;52.338;21.072;2022-08-19T14:49:37;10.63;;;5.47;;
39996;SDS011;25688;52.338;21.072;2022-08-19T14:52:04;8.73;;;5.63;;
39996;SDS011;25688;52.338;21.072;2022-08-19T14:54:30;11.00;;;5.00;;
39996;SDS011;25688;52.338;21.072;2022-08-19T14:56:56;10.00;;;5.93;;
39996;SDS011;25688;52.338;21.072;2022-08-19T14:59:22;16.88;;;6.68;;
39996;SDS011;25688;52.338;21.072;2022-08-19T15:01:48;9.07;;;5.53;;
39996;SDS011;25688;52.338;21.072;2022-08-19T15:04:14;10.27;;;5.88;;
39996;SDS011;25688;52.338;21.072;2022-08-19T15:06:40;13.10;;;5.88;;
39996;SDS011;25688;52.338;21.072;2022-08-19T15:09:07;11.43;;;5.30;;
39996;SDS011;25688;52.338;21.072;2022-08-19T15:11:33;14.90;;;6.43;;
39996;SDS011;25688;52.338;21.072;2022-08-19T15:13:59;9.85;;;5.85;;
39996;SDS011;25688;52.338;21.072;2022-08-19T15:16:26;11.77;;;5.65;;
39996;SDS011;25688;52.338;21.072;2022-08-19T15:18:54;10.15;;;5.65;;
39996;SDS011;25688;52.338;21.072;2022-08-19T15:21:22;8.82;;;5.43;;
39996;SDS011;25688;52.338;21.072;2022-08-19T15:23:49;8.60;;;5.13;;
39996;SDS011;25688;52.338;21.072;2022-08-19T15:26:16;12.68;;;6.28;;
39996;SDS011;25688;52.338;21.072;2022-08-19T15:28:43;9.07;;;5.05;;
39996;SDS011;25688;52.338;21.072;2022-08-19T15:31:10;11.60;;;5.30;;
39996;SDS011;25688;52.338;21.072;2022-08-19T15:33:38;10.85;;;5.45;;
39996;SDS011;25688;52.338;21.072;2022-08-19T15:41:42;12.95;;;6.03;;
39996;SDS011;25688;52.338;21.072;2022-08-19T18:06:38;10.88;;;5.68;;
39996;SDS011;25688;52.338;21.072;2022-08-19T18:09:13;9.98;;;6.40;;
39996;SDS011;25688;52.338;21.072;2022-08-19T18:15:28;13.77;;;6.28;;
39996;SDS011;25688;52.338;21.072;2022-08-19T18:20:50;15.60;;;6.18;;
39996;SDS011;25688;52.338;21.072;2022-08-19T18:23:25;13.43;;;6.00;;
39996;SDS011;25688;52.338;21.072;2022-08-19T18:25:54;11.73;;;5.90;;
39996;SDS011;25688;52.338;21.072;2022-08-19T18:30:58;10.43;;;6.07;;
39996;SDS011;25688;52.338;21.072;2022-08-19T18:33:25;13.13;;;5.82;;
39996;SDS011;25688;52.338;21.072;2022-08-19T18:39:28;13.35;;;6.03;;
39996;SDS011;25688;52.338;21.072;2022-08-19T18:42:13;12.57;;;5.57;;
39996;SDS011;25688;52.338;21.072;2022-08-19T18:57:58;14.07;;;6.88;;
39996;SDS011;25688;52.338;21.072;2022-08-19T19:33:47;14.38;;;5.88;;
39996;SDS011;25688;52.338;21.072;2022-08-19T19:39:48;9.55;;;6.47;;
39996;SDS011;25688;52.338;21.072;2022-08-19T19:44:57;14.88;;;7.03;;
39996;SDS011;25688;52.338;21.072;2022-08-19T19:47:24;16.88;;;6.90;;
39996;SDS011;25688;52.338;21.072;2022-08-19T19:49:54;13.07;;;5.88;;
39996;SDS011;25688;52.338;21.072;2022-08-19T19:52:21;14.23;;;6.15;;
39996;SDS011;25688;52.338;21.072;2022-08-19T19:54:47;14.75;;;6.07;;
39996;SDS011;25688;52.338;21.072;2022-08-19T19:57:13;9.90;;;6.13;;
39996;SDS011;25688;52.338;21.072;2022-08-19T19:59:40;13.35;;;5.95;;
39996;SDS011;25688;52.338;21.072;2022-08-19T20:02:14;11.80;;;6.88;;
39996;SDS011;25688;52.338;21.072;2022-08-19T20:04:58;11.30;;;6.07;;
39996;SDS011;25688;52.338;21.072;2022-08-19T20:07:23;11.32;;;5.50;;
39996;SDS011;25688;52.338;21.072;2022-08-19T20:10:09;10.20;;;5.53;;
39996;SDS011;25688;52.338;21.072;2022-08-19T20:12:35;13.40;;;6.93;;
39996;SDS011;25688;52.338;21.072;2022-08-19T20:15:11;11.35;;;5.50;;
39996;SDS011;25688;52.338;21.072;2022-08-19T20:17:39;17.23;;;6.18;;
39996;SDS011;25688;52.338;21.072;2022-08-19T20:20:10;11.18;;;5.95;;
39996;SDS011;25688;52.338;21.072;2022-08-19T20:25:05;11.13;;;5.88;;
39996;SDS011;25688;52.338;21.072;2022-08-19T20:27:38;11.77;;;5.93;;
39996;SDS011;25688;52.338;21.072;2022-08-19T20:30:10;11.35;;;6.15;;
39996;SDS011;25688;52.338;21.072;2022-08-19T20:32:38;11.57;;;6.38;;
39996;SDS011;25688;52.338;21.072;2022-08-19T20:35:07;13.00;;;7.80;;
39996;SDS011;25688;52.338;21.072;2022-08-19T20:37:37;13.50;;;6.20;;
39996;SDS011;25688;52.338;21.072;2022-08-19T20:40:04;15.32;;;6.78;;
39996;SDS011;25688;52.338;21.072;2022-08-19T20:42:33;11.20;;;6.10;;
39996;SDS011;25688;52.338;21.072;2022-08-19T20:45:01;12.13;;;6.32;;
39996;SDS011;25688;52.338;21.072;2022-08-19T20:47:27;13.77;;;7.20;;
39996;SDS011;25688;52.338;21.072;2022-08-19T20:49:55;12.55;;;5.85;;
39996;SDS011;25688;52.338;21.072;2022-08-19T20:52:21;10.45;;;6.30;;
39996;SDS011;25688;52.338;21.072;2022-08-19T20:54:47;15.18;;;6.43;;
39996;SDS011;25688;52.338;21.072;2022-08-19T20:57:28;12.98;;;6.72;;
39996;SDS011;25688;52.338;21.072;2022-08-19T20:59:54;9.68;;;5.93;;
39996;SDS011;25688;52.338;21.072;2022-08-19T21:02:32;11.95;;;6.13;;
39996;SDS011;25688;52.338;21.072;2022-08-19T21:05:21;12.23;;;6.20;;
39996;SDS011;25688;52.338;21.072;2022-08-19T21:10:58;14.20;;;6.75;;
39996;SDS011;25688;52.338;21.072;2022-08-19T21:13:40;16.92;;;5.95;;
39996;SDS011;25688;52.338;21.072;2022-08-19T21:16:29;12.95;;;6.28;;
39996;SDS011;25688;52.338;21.072;2022-08-19T21:19:16;13.68;;;6.28;;
39996;SDS011;25688;52.338;21.072;2022-08-19T21:24:55;14.00;;;6.15;;
39996;SDS011;25688;52.338;21.072;2022-08-19T21:27:28;12.48;;;6.03;;
39996;SDS011;25688;52.338;21.072;2022-08-19T21:30:00;15.18;;;6.30;;
39996;SDS011;25688;52.338;21.072;2022-08-19T21:32:35;9.80;;;5.95;;
39996;SDS011;25688;52.338;21.072;2022-08-19T21:35:15;11.30;;;6.28;;
39996;SDS011;25688;52.338;21.072;2022-08-19T21:38:10;11.27;;;6.50;;
39996;SDS011;25688;52.338;21.072;2022-08-19T21:40:36;13.90;;;6.05;;
39996;SDS011;25688;52.338;21.072;2022-08-19T21:43:02;11.48;;;5.90;;
39996;SDS011;25688;52.338;21.072;2022-08-19T21:45:29;10.82;;;6.43;;
39996;SDS011;25688;52.338;21.072;2022-08-19T21:47:55;12.85;;;6.35;;
39996;SDS011;25688;52.338;21.072;2022-08-19T22:07:37;13.63;;;6.15;;
39996;SDS011;25688;52.338;21.072;2022-08-19T22:10:07;14.75;;;5.78;;
39996;SDS011;25688;52.338;21.072;2022-08-19T22:12:41;11.27;;;5.90;;
39996;SDS011;25688;52.338;21.072;2022-08-19T22:15:12;11.65;;;6.53;;
39996;SDS011;25688;52.338;21.072;2022-08-19T22:17:41;12.32;;;6.93;;
39996;SDS011;25688;52.338;21.072;2022-08-19T22:20:20;10.43;;;5.70;;
39996;SDS011;25688;52.338;21.072;2022-08-19T22:22:52;11.27;;;5.93;;
39996;SDS011;25688;52.338;21.072;2022-08-19T22:28:51;14.95;;;6.35;;
39996;SDS011;25688;52.338;21.072;2022-08-19T22:31:25;15.85;;;6.22;;
39996;SDS011;25688;52.338;21.072;2022-08-19T22:34:30;12.60;;;6.25;;
39996;SDS011;25688;52.338;21.072;2022-08-19T22:37:39;15.45;;;6.07;;
39996;SDS011;25688;52.338;21.072;2022-08-19T22:40:06;10.80;;;5.88;;
39996;SDS011;25688;52.338;21.072;2022-08-19T22:42:33;12.38;;;6.25;;
39996;SDS011;25688;52.338;21.072;2022-08-19T22:45:12;14.20;;;5.82;;
39996;SDS011;25688;52.338;21.072;2022-08-19T22:50:11;12.73;;;6.03;;
39996;SDS011;25688;52.338;21.072;2022-08-19T22:52:37;11.05;;;5.88;;
39996;SDS011;25688;52.338;21.072;2022-08-19T22:55:07;13.70;;;6.60;;
39996;SDS011;25688;52.338;21.072;2022-08-19T22:57:39;12.88;;;6.22;;
39996;SDS011;25688;52.338;21.072;2022-08-19T23:00:21;13.35;;;5.85;;
39996;SDS011;25688;52.338;21.072;2022-08-19T23:02:51;9.68;;;5.85;;
39996;SDS011;25688;52.338;21.072;2022-08-19T23:05:22;12.15;;;6.38;;
39996;SDS011;25688;52.338;21.072;2022-08-19T23:11:26;11.23;;;6.28;;
39996;SDS011;25688;52.338;21.072;2022-08-19T23:14:25;13.55;;;6.15;;
39996;SDS011;25688;52.338;21.072;2022-08-19T23:17:03;11.88;;;6.57;;
39996;SDS011;25688;52.338;21.072;2022-08-19T23:19:32;12.75;;;6.07;;
39996;SDS011;25688;52.338;21.072;2022-08-19T23:21:58;10.45;;;5.88;;
39996;SDS011;25688;52.338;21.072;2022-08-19T23:24:24;16.33;;;6.30;;
39996;SDS011;25688;52.338;21.072;2022-08-19T23:26:57;16.40;;;6.45;;
39996;SDS011;25688;52.338;21.072;2022-08-19T23:29:44;13.48;;;5.90;;
39996;SDS011;25688;52.338;21.072;2022-08-19T23:46:40;13.68;;;6.40;;
39996;SDS011;25688;52.338;21.072;2022-08-19T23:49:07;11.07;;;6.47;;
39996;SDS011;25688;52.338;21.072;2022-08-19T23:51:32;13.18;;;6.22;;
39996;SDS011;25688;52.338;21.072;2022-08-19T23:53:58;10.75;;;6.88;;
39996;SDS011;25688;52.338;21.072;2022-08-19T23:56:24;16.00;;;6.90;;
39996;SDS011;25688;52.338;21.072;2022-08-19T23:58:49;12.02;;;7.05;;
